KMTH

The Florida Keys Marathon International Airport

Marathon, Florida, USA
KMTH 212329Z 2200/2224 03008KT P6SM BKN045 FM220600 06011KT P6SM FEW030 BKN045 FM221300 09014G21KT P6SM FEW030 BKN045 FM221800 10015G22KT P6SM SCT025 BKN050
Issued Valid From Valid To
Jan-21 @ 23:29 UTC
(an hour ago)
Jan-22 @ 00:00 UTC
(42 minutes ago)
Jan-23 @ 00:00 UTC
(in 23 hours)
Jan-22 @ 00:00 to Jan-22 @ 06:00
KMTH 212329Z 2200/2224 03008KT P6SM BKN045
Wind Visibility Clouds
30° at 8 knots Greater than 6 miles
  • Broken at 4,500' AGL
From Jan-22 @ 06:00 to Jan-22 @ 13:00
FM220600 06011KT P6SM FEW030 BKN045
Wind Visibility Clouds
60° at 11 knots Greater than 6 miles
  • Few at 3,000' AGL
  • Broken at 4,500' AGL
From Jan-22 @ 13:00 to Jan-22 @ 18:00
FM221300 09014G21KT P6SM FEW030 BKN045
Wind Visibility Clouds
90° at 14 knots
 Gusting to 21 knots
Greater than 6 miles
  • Few at 3,000' AGL
  • Broken at 4,500' AGL
From Jan-22 @ 18:00 to Jan-23 @ 00:00
FM221800 10015G22KT P6SM SCT025 BKN050
Wind Visibility Clouds
100° at 15 knots
 Gusting to 22 knots
Greater than 6 miles
  • Scattered at 2,500' AGL
  • Broken at 5,000' AGL
KMTH 212329Z 2200/2224 03008KT P6SM BKN045 FM220600 06011KT P6SM FEW030 BKN045 FM221300 09014G21KT P6SM FEW030 BKN045 FM221800 10015G22KT P6SM SCT025 BKN050
Issued Jan-21 @ 23:29 UTC
(an hour ago)
Valid From Jan-22 @ 00:00 UTC
(42 minutes ago)
Valid To Jan-23 @ 00:00 UTC
(in 23 hours)
Jan-22 @ 00:00 - Jan-22 @ 06:00
Wind Visibility
30° at 8 knots Greater than 6 miles
Clouds
  • Broken at 4,500' AGL
From Jan-22 @ 06:00 - Jan-22 @ 13:00
Wind Visibility
60° at 11 knots Greater than 6 miles
Clouds
  • Few at 3,000' AGL
  • Broken at 4,500' AGL
From Jan-22 @ 13:00 - Jan-22 @ 18:00
Wind Visibility
90° at 14 knots
 Gusting to 21 knots
Greater than 6 miles
Clouds
  • Few at 3,000' AGL
  • Broken at 4,500' AGL
From Jan-22 @ 18:00 - Jan-23 @ 00:00
Wind Visibility
100° at 15 knots
 Gusting to 22 knots
Greater than 6 miles
Clouds
  • Scattered at 2,500' AGL
  • Broken at 5,000' AGL